createdAt,value
2019-04-06T00:00:00.765Z,0.00
2019-04-06T00:01:00.632Z,0.00
2019-04-06T00:02:00.501Z,0.00
2019-04-06T00:03:00.373Z,0.00
2019-04-06T00:04:00.238Z,0.00
2019-04-06T00:05:00.109Z,0.00
2019-04-06T00:05:59.980Z,0.00
2019-04-06T00:07:00.488Z,0.00
2019-04-06T00:07:59.716Z,0.00
2019-04-06T00:08:59.590Z,0.00
2019-04-06T00:09:59.455Z,0.00
2019-04-06T00:10:59.324Z,0.00
2019-04-06T00:11:59.197Z,0.00
2019-04-06T00:12:59.065Z,0.00
2019-04-06T00:13:58.934Z,0.00
2019-04-06T00:14:58.800Z,0.00
2019-04-06T00:15:58.672Z,0.00
2019-04-06T00:16:58.539Z,0.00
2019-04-06T00:17:58.412Z,0.00
2019-04-06T00:18:58.278Z,0.00
2019-04-06T00:19:58.148Z,0.00
2019-04-06T00:20:58.023Z,0.00
2019-04-06T00:21:57.887Z,0.00
2019-04-06T00:22:57.755Z,0.00
2019-04-06T00:23:57.625Z,0.00
2019-04-06T00:24:57.496Z,0.00
2019-04-06T00:25:57.365Z,0.00
2019-04-06T00:26:57.233Z,0.00
2019-04-06T00:27:57.102Z,0.00
2019-04-06T00:28:56.970Z,0.00
2019-04-06T00:29:56.839Z,0.00
2019-04-06T00:30:56.713Z,0.00
2019-04-06T00:31:56.621Z,0.00
2019-04-06T00:32:56.445Z,0.00
2019-04-06T00:33:56.320Z,0.00
2019-04-06T00:34:56.184Z,0.00
2019-04-06T00:35:56.490Z,0.00
2019-04-06T00:36:55.921Z,0.00
2019-04-06T00:37:55.791Z,0.00
2019-04-06T00:38:55.658Z,0.00
2019-04-06T00:39:55.527Z,0.00
2019-04-06T00:40:55.398Z,0.00
2019-04-06T00:41:55.265Z,0.00
2019-04-06T00:42:55.137Z,0.00
2019-04-06T00:43:55.005Z,0.00
2019-04-06T00:44:54.873Z,0.00
2019-04-06T00:45:54.744Z,0.00
2019-04-06T00:46:54.612Z,0.00
2019-04-06T00:47:54.484Z,0.00
2019-04-06T00:48:54.352Z,0.00
2019-04-06T00:49:54.218Z,0.00
2019-04-06T00:50:54.090Z,0.00
2019-04-06T00:51:53.955Z,0.00
2019-04-06T00:52:53.825Z,0.00
2019-04-06T00:53:53.696Z,0.00
2019-04-06T00:54:53.562Z,0.00
2019-04-06T00:55:55.932Z,0.00
2019-04-06T00:56:53.302Z,0.00
2019-04-06T00:57:53.177Z,0.00
2019-04-06T00:58:53.046Z,0.00
2019-04-06T00:59:52.911Z,0.00
2019-04-06T01:00:52.790Z,0.00
2019-04-06T01:01:52.677Z,0.00
2019-04-06T01:02:54.137Z,0.00
2019-04-06T01:03:52.394Z,0.00
2019-04-06T01:04:52.524Z,0.00
2019-04-06T01:05:52.124Z,0.00
2019-04-06T01:06:51.994Z,0.00
2019-04-06T01:07:51.861Z,0.00
2019-04-06T01:08:53.638Z,0.00
2019-04-06T01:09:51.601Z,0.00
2019-04-06T01:10:53.138Z,0.00
2019-04-06T01:11:51.345Z,0.00
2019-04-06T01:12:51.208Z,0.00
2019-04-06T01:13:51.074Z,0.00
2019-04-06T01:14:50.945Z,0.00
2019-04-06T01:15:50.811Z,0.00
2019-04-06T01:16:50.698Z,0.00
2019-04-06T01:17:50.550Z,0.00
2019-04-06T01:18:50.422Z,0.00
2019-04-06T01:19:50.319Z,0.00
2019-04-06T01:20:50.160Z,0.00
2019-04-06T01:21:50.030Z,0.00
2019-04-06T01:22:49.900Z,0.00
2019-04-06T01:23:49.768Z,0.00
2019-04-06T01:24:49.636Z,0.00
2019-04-06T01:25:49.583Z,0.00
2019-04-06T01:26:49.373Z,0.00
2019-04-06T01:27:49.243Z,0.00
2019-04-06T01:28:49.110Z,0.00
2019-04-06T01:29:48.981Z,0.00
2019-04-06T01:30:48.851Z,0.00
2019-04-06T01:31:48.720Z,0.00
2019-04-06T01:32:48.604Z,0.00
2019-04-06T01:33:48.542Z,0.00
2019-04-06T01:34:48.324Z,0.00
2019-04-06T01:35:48.191Z,0.00
2019-04-06T01:36:48.064Z,0.00
2019-04-06T01:37:47.933Z,0.00
2019-04-06T01:38:47.801Z,0.00
2019-04-06T01:39:47.672Z,0.00
2019-04-06T01:40:47.541Z,0.00
2019-04-06T01:41:47.408Z,0.00
2019-04-06T01:42:47.276Z,0.00
2019-04-06T01:43:47.142Z,0.00
2019-04-06T01:44:47.013Z,0.00
2019-04-06T01:45:46.882Z,0.00
2019-04-06T01:46:46.752Z,0.00
2019-04-06T01:47:46.624Z,0.00
2019-04-06T01:48:46.487Z,0.00
2019-04-06T01:49:46.356Z,0.00
2019-04-06T01:50:46.226Z,0.00
2019-04-06T01:51:46.094Z,0.00
2019-04-06T01:52:45.964Z,0.00
2019-04-06T01:53:45.832Z,0.00
2019-04-06T01:54:45.700Z,0.00
2019-04-06T01:55:45.575Z,0.00
2019-04-06T01:56:45.441Z,0.00
2019-04-06T01:57:45.384Z,0.00
2019-04-06T01:58:45.292Z,0.00
2019-04-06T01:59:45.104Z,0.00
2019-04-06T02:00:44.913Z,0.00
2019-04-06T02:01:44.784Z,0.00
2019-04-06T02:02:44.651Z,0.00
2019-04-06T02:03:44.520Z,0.00
2019-04-06T02:04:44.387Z,0.00
2019-04-06T02:05:44.259Z,0.00
2019-04-06T02:06:44.131Z,0.00
2019-04-06T02:07:43.998Z,0.00
2019-04-06T02:08:43.869Z,0.00
2019-04-06T02:09:43.733Z,0.00
2019-04-06T02:10:43.601Z,0.00
2019-04-06T02:11:43.473Z,0.00
2019-04-06T02:12:43.456Z,0.00
2019-04-06T02:13:43.209Z,0.00
2019-04-06T02:14:43.076Z,0.00
2019-04-06T02:15:42.947Z,0.00
2019-04-06T02:16:44.661Z,0.00
2019-04-06T02:17:42.685Z,0.00
2019-04-06T02:18:42.555Z,0.00
2019-04-06T02:19:42.420Z,0.00
2019-04-06T02:20:42.407Z,0.00
2019-04-06T02:21:42.160Z,0.00
2019-04-06T02:22:42.029Z,0.00
2019-04-06T02:23:41.896Z,0.00
2019-04-06T02:24:41.768Z,0.00
2019-04-06T02:25:41.635Z,0.00
2019-04-06T02:26:41.503Z,0.00
2019-04-06T02:27:41.373Z,0.00
2019-04-06T02:28:41.244Z,0.00
2019-04-06T02:29:41.224Z,0.00
2019-04-06T02:30:41.116Z,0.00
2019-04-06T02:31:40.974Z,0.00
2019-04-06T02:32:40.807Z,0.00
2019-04-06T02:33:40.609Z,0.00
2019-04-06T02:34:40.455Z,0.00
2019-04-06T02:35:40.326Z,0.00
2019-04-06T02:36:40.205Z,0.00
2019-04-06T02:37:40.068Z,0.00
2019-04-06T02:38:39.930Z,0.00
2019-04-06T02:39:39.813Z,0.00
2019-04-06T02:40:39.672Z,0.00
2019-04-06T02:41:39.540Z,0.00
2019-04-06T02:42:39.471Z,0.00
2019-04-06T02:43:39.364Z,0.00
2019-04-06T02:44:39.142Z,0.00
2019-04-06T02:45:39.013Z,0.00
2019-04-06T02:46:38.880Z,0.00
2019-04-06T02:47:38.751Z,0.00
2019-04-06T02:48:38.619Z,0.00
2019-04-06T02:49:38.489Z,0.00
2019-04-06T02:50:38.358Z,0.00
2019-04-06T02:51:38.314Z,0.00
2019-04-06T02:52:38.125Z,0.00
2019-04-06T02:53:37.962Z,0.00
2019-04-06T02:54:37.830Z,0.00
2019-04-06T02:55:37.699Z,0.00
2019-04-06T02:56:45.553Z,0.00
2019-04-06T02:57:37.605Z,0.00
2019-04-06T02:58:37.305Z,0.00
2019-04-06T02:59:37.174Z,0.00
2019-04-06T03:00:37.041Z,0.00
2019-04-06T03:01:36.915Z,0.00
2019-04-06T03:02:36.780Z,0.00
2019-04-06T03:03:36.651Z,0.00
2019-04-06T03:04:36.526Z,0.00
2019-04-06T03:05:36.387Z,0.00
2019-04-06T03:06:36.253Z,0.00
2019-04-06T03:07:36.148Z,0.00
2019-04-06T03:08:35.990Z,0.00
2019-04-06T03:09:35.861Z,0.00
2019-04-06T03:10:35.729Z,0.00
2019-04-06T03:11:35.609Z,0.00
2019-04-06T03:12:35.467Z,0.00
2019-04-06T03:13:35.334Z,0.00
2019-04-06T03:14:35.207Z,0.00
2019-04-06T03:15:35.071Z,0.00
2019-04-06T03:16:35.071Z,0.00
2019-04-06T03:17:34.820Z,0.00
2019-04-06T03:18:34.675Z,0.00
2019-04-06T03:19:34.701Z,0.00
2019-04-06T03:20:34.415Z,0.00
2019-04-06T03:21:34.283Z,0.00
2019-04-06T03:22:34.151Z,0.00
2019-04-06T03:23:49.179Z,0.00
2019-04-06T03:24:33.896Z,0.00
2019-04-06T03:25:33.757Z,0.00
2019-04-06T03:26:33.622Z,0.00
2019-04-06T03:27:33.495Z,0.00
2019-04-06T03:28:33.358Z,0.00
2019-04-06T03:29:33.240Z,0.00
2019-04-06T03:30:33.111Z,0.00
2019-04-06T03:31:32.966Z,0.00
2019-04-06T03:32:32.837Z,0.00
2019-04-06T03:33:32.707Z,0.00
2019-04-06T03:34:32.576Z,0.00
2019-04-06T03:35:32.440Z,0.00
2019-04-06T03:36:32.311Z,0.00
2019-04-06T03:37:32.177Z,0.00
2019-04-06T03:38:32.046Z,0.00
2019-04-06T03:39:31.920Z,0.00
2019-04-06T03:40:31.789Z,0.00
2019-04-06T03:41:31.700Z,0.00
2019-04-06T03:42:31.519Z,0.00
2019-04-06T03:43:31.391Z,0.00
2019-04-06T03:44:31.256Z,0.00
2019-04-06T03:45:31.130Z,0.00
2019-04-06T03:46:31.000Z,0.00
2019-04-06T03:47:30.861Z,0.00
2019-04-06T03:48:30.827Z,0.00
2019-04-06T03:49:30.612Z,0.00
2019-04-06T03:50:30.483Z,0.00
2019-04-06T03:51:30.338Z,0.00
2019-04-06T03:52:30.206Z,0.00
2019-04-06T03:53:30.267Z,0.00
2019-04-06T03:54:29.941Z,0.00
2019-04-06T03:55:29.828Z,0.00
2019-04-06T03:56:29.678Z,0.00
2019-04-06T03:57:29.669Z,0.00
2019-04-06T03:58:29.414Z,0.00
2019-04-06T03:59:29.282Z,0.00
2019-04-06T04:00:29.175Z,0.00
2019-04-06T04:01:29.023Z,0.00
2019-04-06T04:02:28.892Z,0.00
2019-04-06T04:03:28.758Z,0.00
2019-04-06T04:04:28.634Z,0.00
2019-04-06T04:05:28.498Z,0.00
2019-04-06T04:06:30.277Z,0.00
2019-04-06T04:07:28.239Z,0.00
2019-04-06T04:08:28.101Z,0.00
2019-04-06T04:09:27.976Z,0.00
2019-04-06T04:10:27.842Z,0.00
2019-04-06T04:11:27.705Z,0.00
2019-04-06T04:12:27.578Z,0.00
2019-04-06T04:13:27.457Z,0.00
2019-04-06T04:14:27.488Z,0.00
2019-04-06T04:15:27.191Z,0.00
2019-04-06T04:16:27.058Z,0.00
2019-04-06T04:17:26.919Z,0.00
2019-04-06T04:18:26.930Z,0.00
2019-04-06T04:19:26.660Z,0.00
2019-04-06T04:20:26.524Z,0.00
2019-04-06T04:21:26.390Z,0.00
2019-04-06T04:22:26.267Z,0.00
2019-04-06T04:23:26.129Z,0.00
2019-04-06T04:24:26.200Z,0.00
2019-04-06T04:25:25.863Z,0.00
2019-04-06T04:26:25.735Z,0.00
2019-04-06T04:27:29.379Z,0.00
2019-04-06T04:28:25.475Z,0.00
2019-04-06T04:29:25.343Z,0.00
2019-04-06T04:30:32.198Z,0.00
2019-04-06T04:31:25.076Z,4.00
2019-04-06T04:32:24.948Z,4.00
2019-04-06T04:33:24.815Z,4.00
2019-04-06T04:34:24.684Z,4.00
2019-04-06T04:35:24.552Z,4.00
2019-04-06T04:36:24.453Z,4.00
2019-04-06T04:37:24.290Z,4.00
2019-04-06T04:38:24.154Z,8.00
2019-04-06T04:39:24.024Z,8.00
2019-04-06T04:40:25.673Z,12.00
2019-04-06T04:41:23.761Z,12.00
2019-04-06T04:42:23.646Z,12.00
2019-04-06T04:43:23.497Z,20.00
2019-04-06T04:44:23.368Z,20.00
2019-04-06T04:45:23.236Z,24.00
2019-04-06T04:46:23.107Z,28.00
2019-04-06T04:47:22.971Z,32.00
2019-04-06T04:48:22.842Z,36.00
2019-04-06T04:49:22.782Z,40.00
2019-04-06T04:50:22.582Z,48.00
2019-04-06T04:51:22.448Z,52.00
2019-04-06T04:52:22.318Z,60.00
2019-04-06T04:53:22.187Z,68.00
2019-04-06T04:54:22.058Z,72.00
2019-04-06T04:55:21.923Z,80.00
2019-04-06T04:56:21.906Z,88.00
2019-04-06T04:57:22.626Z,96.00
2019-04-06T04:58:21.528Z,108.00
2019-04-06T04:59:21.397Z,116.00
2019-04-06T05:00:21.269Z,124.00
2019-04-06T05:01:21.134Z,132.00
2019-04-06T05:02:21.006Z,144.00
2019-04-06T05:03:21.119Z,156.00
2019-04-06T05:04:20.741Z,164.00
2019-04-06T05:05:20.611Z,176.00
2019-04-06T05:06:20.477Z,192.00
2019-04-06T05:07:20.350Z,204.00
2019-04-06T05:08:20.258Z,220.00
2019-04-06T05:09:20.085Z,228.00
2019-04-06T05:10:19.954Z,224.00
2019-04-06T05:11:21.815Z,228.00
2019-04-06T05:12:19.693Z,252.00
2019-04-06T05:13:19.558Z,272.00
2019-04-06T05:14:19.429Z,292.00
2019-04-06T05:15:19.294Z,328.00
2019-04-06T05:16:19.170Z,352.00
2019-04-06T05:17:19.032Z,364.00
2019-04-06T05:18:18.901Z,376.00
2019-04-06T05:19:18.767Z,400.00
2019-04-06T05:20:18.640Z,420.00
2019-04-06T05:21:18.506Z,440.00
2019-04-06T05:22:18.377Z,460.00
2019-04-06T05:23:18.247Z,468.00
2019-04-06T05:24:18.112Z,476.00
2019-04-06T05:25:17.981Z,464.00
2019-04-06T05:26:18.848Z,480.00
2019-04-06T05:27:17.719Z,520.00
2019-04-06T05:28:17.587Z,548.00
2019-04-06T05:29:17.456Z,556.00
2019-04-06T05:30:17.323Z,528.00
2019-04-06T05:31:17.192Z,516.00
2019-04-06T05:32:17.221Z,540.00
2019-04-06T05:33:16.933Z,588.00
2019-04-06T05:34:16.904Z,636.00
2019-04-06T05:35:16.665Z,680.00
2019-04-06T05:36:16.534Z,708.00
2019-04-06T05:37:16.402Z,744.00
2019-04-06T05:38:16.272Z,780.00
2019-04-06T05:39:16.174Z,804.00
2019-04-06T05:40:16.014Z,816.00
2019-04-06T05:41:15.882Z,820.00
2019-04-06T05:42:15.749Z,800.00
2019-04-06T05:43:15.632Z,800.00
2019-04-06T05:44:15.486Z,824.00
2019-04-06T05:45:15.353Z,844.00
2019-04-06T05:46:15.223Z,1000.00
2019-04-06T05:47:15.093Z,976.00
2019-04-06T05:48:14.959Z,852.00
2019-04-06T05:49:14.829Z,840.00
2019-04-06T05:50:14.698Z,1044.00
2019-04-06T05:51:14.567Z,1200.00
2019-04-06T05:52:14.434Z,1172.00
2019-04-06T05:53:14.303Z,992.00
2019-04-06T05:54:14.351Z,964.00
2019-04-06T05:55:14.625Z,924.00
2019-04-06T05:56:13.915Z,936.00
2019-04-06T05:57:13.780Z,952.00
2019-04-06T05:58:13.649Z,968.00
2019-04-06T05:59:13.517Z,972.00
2019-04-06T06:00:13.389Z,956.00
2019-04-06T06:01:13.256Z,936.00
2019-04-06T06:02:13.128Z,912.00
2019-04-06T06:03:15.352Z,904.00
2019-04-06T06:04:12.948Z,912.00
2019-04-06T06:05:12.734Z,928.00
2019-04-06T06:06:13.103Z,940.00
2019-04-06T06:07:12.609Z,948.00
2019-04-06T06:08:12.408Z,968.00
2019-04-06T06:09:12.218Z,992.00
2019-04-06T06:10:12.078Z,1012.00
2019-04-06T06:11:11.947Z,948.00
2019-04-06T06:12:11.865Z,916.00
2019-04-06T06:13:11.685Z,936.00
2019-04-06T06:14:11.556Z,980.00
2019-04-06T06:15:11.424Z,1224.00
2019-04-06T06:16:12.070Z,1296.00
2019-04-06T06:17:11.242Z,1380.00
2019-04-06T06:18:11.029Z,1064.00
2019-04-06T06:19:10.902Z,940.00
2019-04-06T06:20:10.770Z,1132.00
2019-04-06T06:21:10.637Z,1556.00
2019-04-06T06:22:10.510Z,1576.00
2019-04-06T06:23:10.377Z,1504.00
2019-04-06T06:24:10.626Z,1480.00
2019-04-06T06:25:10.158Z,1344.00
2019-04-06T06:26:11.691Z,1512.00
2019-04-06T06:27:09.854Z,1128.00
2019-04-06T06:28:14.990Z,1284.00
2019-04-06T06:29:09.594Z,1336.00
2019-04-06T06:30:09.469Z,1208.00
2019-04-06T06:31:09.332Z,1112.00
2019-04-06T06:32:09.293Z,1192.00
2019-04-06T06:33:09.074Z,1596.00
2019-04-06T06:34:08.946Z,1792.00
2019-04-06T06:35:08.814Z,1792.00
2019-04-06T06:36:08.748Z,1804.00
2019-04-06T06:37:08.552Z,1820.00
2019-04-06T06:38:08.420Z,1844.00
2019-04-06T06:39:08.366Z,1864.00
2019-04-06T06:40:08.161Z,1892.00
2019-04-06T06:41:08.034Z,1928.00
2019-04-06T06:42:07.901Z,1964.00
2019-04-06T06:43:07.927Z,2000.00
2019-04-06T06:44:07.817Z,2012.00
2019-04-06T06:45:07.667Z,2052.00
2019-04-06T06:46:07.383Z,2080.00
2019-04-06T06:47:07.256Z,2080.00
2019-04-06T06:48:08.753Z,2120.00
2019-04-06T06:49:06.998Z,2112.00
2019-04-06T06:50:06.868Z,2128.00
2019-04-06T06:51:06.743Z,2164.00
2019-04-06T06:52:06.610Z,2200.00
2019-04-06T06:53:06.691Z,2216.00
2019-04-06T06:54:07.514Z,2248.00
2019-04-06T06:55:08.195Z,2184.00
2019-04-06T06:56:07.741Z,1728.00
2019-04-06T06:57:05.973Z,2028.00
2019-04-06T06:58:05.836Z,2284.00
2019-04-06T06:59:05.835Z,2324.00
2019-04-06T07:00:07.207Z,2304.00
2019-04-06T07:01:05.454Z,2236.00
2019-04-06T07:02:05.322Z,2232.00
2019-04-06T07:03:05.196Z,2256.00
2019-04-06T07:04:05.067Z,2312.00
2019-04-06T07:05:04.937Z,2344.00
2019-04-06T07:06:04.813Z,2400.00
2019-04-06T07:07:04.680Z,2544.00
2019-04-06T07:08:04.553Z,2604.00
2019-04-06T07:09:04.434Z,2224.00
2019-04-06T07:10:06.011Z,2092.00
2019-04-06T07:11:04.173Z,2616.00
2019-04-06T07:12:04.040Z,2568.00
2019-04-06T07:13:03.915Z,2716.00
2019-04-06T07:14:03.827Z,2784.00
2019-04-06T07:15:03.654Z,2864.00
2019-04-06T07:16:03.537Z,2920.00
2019-04-06T07:17:03.401Z,2848.00
2019-04-06T07:18:03.275Z,2864.00
2019-04-06T07:19:03.148Z,2796.00
2019-04-06T07:20:03.019Z,2692.00
2019-04-06T07:21:02.895Z,2496.00
2019-04-06T07:22:02.765Z,2644.00
2019-04-06T07:23:02.637Z,2660.00
2019-04-06T07:24:02.695Z,2688.00
2019-04-06T07:25:02.719Z,2576.00
2019-04-06T07:26:02.258Z,2540.00
2019-04-06T07:27:02.182Z,2492.00
2019-04-06T07:28:02.002Z,2472.00
2019-04-06T07:29:01.872Z,2452.00
2019-04-06T07:30:01.747Z,2444.00
2019-04-06T07:31:01.617Z,2340.00
2019-04-06T07:32:01.489Z,2184.00
2019-04-06T07:33:01.363Z,2444.00
2019-04-06T07:34:01.236Z,2448.00
2019-04-06T07:35:01.341Z,2452.00
2019-04-06T07:36:00.984Z,2356.00
2019-04-06T07:37:00.855Z,2456.00
2019-04-06T07:38:00.902Z,2568.00
2019-04-06T07:39:00.603Z,2712.00
2019-04-06T07:40:00.474Z,2744.00
2019-04-06T07:41:00.356Z,2512.00
2019-04-06T07:42:00.224Z,2780.00
2019-04-06T07:43:00.101Z,2820.00
2019-04-06T07:43:59.970Z,2848.00
2019-04-06T07:45:00.048Z,2780.00
2019-04-06T07:45:59.714Z,2732.00
2019-04-06T07:46:59.587Z,2704.00
2019-04-06T07:47:59.485Z,2596.00
2019-04-06T07:49:07.872Z,2600.00
2019-04-06T07:49:59.216Z,2688.00
2019-04-06T07:50:59.335Z,2684.00
2019-04-06T07:51:58.956Z,2760.00
2019-04-06T07:52:58.835Z,2872.00
2019-04-06T07:53:58.703Z,2892.00
2019-04-06T07:54:58.583Z,2932.00
2019-04-06T07:55:58.452Z,3004.00
2019-04-06T07:56:58.323Z,3024.00
2019-04-06T07:57:58.336Z,3032.00
2019-04-06T07:58:58.090Z,3052.00
2019-04-06T07:59:57.946Z,2928.00
2019-04-06T08:00:57.823Z,2980.00
2019-04-06T08:01:57.694Z,3024.00
2019-04-06T08:02:57.587Z,3024.00
2019-04-06T08:03:57.442Z,3056.00
2019-04-06T08:04:57.329Z,3132.00
2019-04-06T08:05:57.197Z,3132.00
2019-04-06T08:06:57.066Z,3140.00
2019-04-06T08:07:56.949Z,3052.00
2019-04-06T08:08:56.823Z,3084.00
2019-04-06T08:09:56.691Z,3032.00
2019-04-06T08:10:56.581Z,3396.00
2019-04-06T08:11:56.444Z,3468.00
2019-04-06T08:12:56.416Z,3432.00
2019-04-06T08:13:56.190Z,3428.00
2019-04-06T08:14:57.427Z,3224.00
2019-04-06T08:15:55.944Z,3248.00
2019-04-06T08:16:55.814Z,3128.00
2019-04-06T08:17:55.711Z,3160.00
2019-04-06T08:18:55.569Z,3064.00
2019-04-06T08:19:55.440Z,3312.00
2019-04-06T08:20:55.314Z,3288.00
2019-04-06T08:21:55.192Z,3176.00
2019-04-06T08:22:55.065Z,3232.00
2019-04-06T08:23:55.122Z,3332.00
2019-04-06T08:24:54.815Z,3276.00
2019-04-06T08:25:54.698Z,3232.00
2019-04-06T08:26:54.570Z,3532.00
2019-04-06T08:27:54.451Z,3572.00
2019-04-06T08:29:00.220Z,3544.00
2019-04-06T08:29:54.191Z,3664.00
2019-04-06T08:30:54.066Z,3608.00
2019-04-06T08:31:53.944Z,3592.00
2019-04-06T08:32:53.820Z,3552.00
2019-04-06T08:33:53.891Z,3656.00
2019-04-06T08:34:53.635Z,3500.00
2019-04-06T08:35:53.449Z,3580.00
2019-04-06T08:36:53.550Z,3732.00
2019-04-06T08:37:53.197Z,3752.00
2019-04-06T08:38:53.073Z,3800.00
2019-04-06T08:39:52.972Z,3916.00
2019-04-06T08:40:52.823Z,4016.00
2019-04-06T08:41:52.712Z,4184.00
2019-04-06T08:42:52.578Z,4156.00
2019-04-06T08:43:52.535Z,4180.00
2019-04-06T08:44:52.330Z,4304.00
2019-04-06T08:45:52.313Z,4312.00
2019-04-06T08:46:52.082Z,4084.00
2019-04-06T08:47:51.966Z,4112.00
2019-04-06T08:48:51.856Z,4068.00
2019-04-06T08:49:51.715Z,4116.00
2019-04-06T08:50:51.590Z,4124.00
2019-04-06T08:51:51.468Z,3968.00
2019-04-06T08:52:51.343Z,3916.00
2019-04-06T08:53:51.219Z,3960.00
2019-04-06T08:54:51.092Z,4064.00
2019-04-06T08:55:51.117Z,4000.00
2019-04-06T08:56:50.856Z,3820.00
2019-04-06T08:57:50.727Z,3860.00
2019-04-06T08:58:50.598Z,3880.00
2019-04-06T08:59:50.476Z,4028.00
2019-04-06T09:00:50.351Z,3992.00
2019-04-06T09:01:50.233Z,3948.00
2019-04-06T09:02:50.106Z,4028.00
2019-04-06T09:03:50.033Z,3992.00
2019-04-06T09:04:49.860Z,4112.00
2019-04-06T09:05:49.733Z,4172.00
2019-04-06T09:06:49.608Z,4288.00
2019-04-06T09:07:49.485Z,4252.00
2019-04-06T09:08:49.359Z,4188.00
2019-04-06T09:09:49.238Z,4236.00
2019-04-06T09:10:49.139Z,4216.00
2019-04-06T09:11:48.993Z,4192.00
2019-04-06T09:12:48.865Z,3968.00
2019-04-06T09:13:48.741Z,3924.00
2019-04-06T09:14:48.661Z,3676.00
2019-04-06T09:15:48.494Z,3528.00
2019-04-06T09:16:48.369Z,3364.00
2019-04-06T09:17:48.246Z,3428.00
2019-04-06T09:18:49.493Z,3588.00
2019-04-06T09:19:47.997Z,3728.00
2019-04-06T09:20:47.872Z,3764.00
2019-04-06T09:21:47.747Z,3668.00
2019-04-06T09:22:47.621Z,3708.00
2019-04-06T09:23:47.498Z,3828.00
2019-04-06T09:24:47.375Z,3744.00
2019-04-06T09:25:47.250Z,3532.00
2019-04-06T09:26:48.450Z,3752.00
2019-04-06T09:27:47.007Z,3572.00
2019-04-06T09:28:46.878Z,3536.00
2019-04-06T09:29:46.750Z,3324.00
2019-04-06T09:30:46.631Z,3312.00
2019-04-06T09:31:46.504Z,3384.00
2019-04-06T09:32:46.382Z,3404.00
2019-04-06T09:33:46.579Z,3224.00
2019-04-06T09:34:46.131Z,3156.00
2019-04-06T09:35:46.006Z,3188.00
2019-04-06T09:36:45.884Z,3192.00
2019-04-06T09:37:45.758Z,3160.00
2019-04-06T09:38:45.634Z,3116.00
2019-04-06T09:39:45.514Z,3128.00
2019-04-06T09:40:45.394Z,3144.00
2019-04-06T09:41:45.265Z,3184.00
2019-04-06T09:42:45.199Z,3204.00
2019-04-06T09:43:45.017Z,3188.00
2019-04-06T09:44:44.894Z,3244.00
2019-04-06T09:45:44.819Z,3196.00
2019-04-06T09:46:44.643Z,3244.00
2019-04-06T09:47:44.767Z,3052.00
2019-04-06T09:48:44.399Z,2872.00
2019-04-06T09:49:44.273Z,3276.00
2019-04-06T09:50:44.148Z,3496.00
2019-04-06T09:51:44.026Z,3512.00
2019-04-06T09:52:43.900Z,2712.00
2019-04-06T09:53:43.778Z,3776.00
2019-04-06T09:54:43.656Z,3944.00
2019-04-06T09:55:43.533Z,4148.00
2019-04-06T09:56:43.410Z,4132.00
2019-04-06T09:57:43.573Z,4828.00
2019-04-06T09:58:43.201Z,4524.00
2019-04-06T09:59:43.269Z,3832.00
2019-04-06T10:00:43.178Z,3484.00
2019-04-06T10:01:42.792Z,3448.00
2019-04-06T10:02:42.669Z,3256.00
2019-04-06T10:03:42.547Z,3384.00
2019-04-06T10:04:42.424Z,3620.00
2019-04-06T10:05:42.297Z,3772.00
2019-04-06T10:06:42.247Z,3444.00
2019-04-06T10:07:42.389Z,3916.00
2019-04-06T10:08:42.153Z,3920.00
2019-04-06T10:09:41.805Z,4080.00
2019-04-06T10:10:41.684Z,4228.00
2019-04-06T10:11:41.561Z,4164.00
2019-04-06T10:12:41.437Z,4128.00
2019-04-06T10:13:41.315Z,4172.00
2019-04-06T10:14:41.190Z,4040.00
2019-04-06T10:15:41.067Z,3696.00
2019-04-06T10:16:40.946Z,3680.00
2019-04-06T10:17:40.822Z,3740.00
2019-04-06T10:18:40.984Z,3752.00
2019-04-06T10:19:40.579Z,3720.00
2019-04-06T10:20:40.456Z,3788.00
2019-04-06T10:21:40.331Z,3824.00
2019-04-06T10:22:40.212Z,3784.00
2019-04-06T10:23:40.088Z,3776.00
2019-04-06T10:24:39.991Z,3696.00
2019-04-06T10:25:39.841Z,3832.00
2019-04-06T10:26:39.717Z,3952.00
2019-04-06T10:27:39.594Z,3956.00
2019-04-06T10:28:39.471Z,3920.00
2019-04-06T10:29:47.993Z,4004.00
2019-04-06T10:30:39.312Z,4036.00
2019-04-06T10:31:39.102Z,4200.00
2019-04-06T10:32:38.982Z,4452.00
2019-04-06T10:33:38.857Z,4540.00
2019-04-06T10:34:38.734Z,4264.00
2019-04-06T10:35:38.710Z,4116.00
2019-04-06T10:36:38.489Z,4164.00
2019-04-06T10:37:38.367Z,4308.00
2019-04-06T10:38:38.554Z,4300.00
2019-04-06T10:39:38.124Z,4332.00
2019-04-06T10:40:37.998Z,4588.00
2019-04-06T10:41:37.884Z,4912.00
2019-04-06T10:42:37.751Z,4548.00
2019-04-06T10:43:37.628Z,4552.00
2019-04-06T10:44:37.503Z,4888.00
2019-04-06T10:45:37.381Z,5096.00
2019-04-06T10:46:37.257Z,5532.00
2019-04-06T10:47:37.139Z,5968.00
2019-04-06T10:48:37.127Z,6448.00
2019-04-06T10:49:36.906Z,6824.00
2019-04-06T10:50:36.772Z,6968.00
2019-04-06T10:51:36.666Z,6388.00
2019-04-06T10:52:36.528Z,5584.00
2019-04-06T10:53:36.403Z,4540.00
2019-04-06T10:54:36.283Z,5048.00
2019-04-06T10:55:36.162Z,4768.00
2019-04-06T10:56:36.041Z,4720.00
2019-04-06T10:57:35.917Z,4708.00
2019-04-06T10:58:35.795Z,4700.00
2019-04-06T10:59:35.670Z,4452.00
2019-04-06T11:00:35.552Z,4752.00
2019-04-06T11:01:35.440Z,5148.00
2019-04-06T11:02:35.305Z,5508.00
2019-04-06T11:03:35.501Z,5652.00
2019-04-06T11:04:35.061Z,5388.00
2019-04-06T11:05:34.934Z,5756.00
2019-04-06T11:06:35.000Z,5932.00
2019-04-06T11:07:34.691Z,6192.00
2019-04-06T11:08:34.572Z,6280.00
2019-04-06T11:09:34.446Z,6676.00
2019-04-06T11:10:34.456Z,6944.00
2019-04-06T11:11:34.200Z,7040.00
2019-04-06T11:12:34.411Z,7164.00
2019-04-06T11:13:34.083Z,7012.00
2019-04-06T11:14:33.833Z,6876.00
2019-04-06T11:15:33.714Z,6496.00
2019-04-06T11:16:33.593Z,6276.00
2019-04-06T11:17:33.516Z,5760.00
2019-04-06T11:18:33.344Z,5648.00
2019-04-06T11:19:33.278Z,5760.00
2019-04-06T11:20:33.167Z,5904.00
2019-04-06T11:21:32.979Z,5748.00
2019-04-06T11:22:32.856Z,6084.00
2019-04-06T11:23:32.735Z,6412.00
2019-04-06T11:24:32.779Z,6960.00
2019-04-06T11:25:32.489Z,7104.00
2019-04-06T11:26:32.368Z,7224.00
2019-04-06T11:27:32.246Z,7404.00
2019-04-06T11:28:32.125Z,7348.00
2019-04-06T11:29:32.006Z,7408.00
2019-04-06T11:30:31.882Z,6860.00
2019-04-06T11:31:31.772Z,6668.00
2019-04-06T11:32:31.936Z,6404.00
2019-04-06T11:33:31.509Z,5988.00
2019-04-06T11:34:31.691Z,6240.00
2019-04-06T11:35:31.266Z,6536.00
2019-04-06T11:36:31.142Z,6748.00
2019-04-06T11:37:31.031Z,7024.00
2019-04-06T11:38:31.039Z,7300.00
2019-04-06T11:39:30.781Z,7360.00
2019-04-06T11:40:30.657Z,6928.00
2019-04-06T11:41:30.536Z,6692.00
2019-04-06T11:42:30.420Z,6628.00
2019-04-06T11:43:30.289Z,6396.00
2019-04-06T11:44:31.106Z,6332.00
2019-04-06T11:45:30.278Z,6284.00
2019-04-06T11:46:29.924Z,6200.00
2019-04-06T11:47:29.808Z,6196.00
2019-04-06T11:48:29.683Z,6472.00
2019-04-06T11:49:29.563Z,6408.00
2019-04-06T11:50:29.483Z,6820.00
2019-04-06T11:51:29.325Z,6656.00
2019-04-06T11:52:29.198Z,6564.00
2019-04-06T11:53:29.075Z,6696.00
2019-04-06T11:54:28.949Z,6688.00
2019-04-06T11:55:28.828Z,6528.00
2019-04-06T11:56:28.705Z,6284.00
2019-04-06T11:57:28.591Z,6068.00
2019-04-06T11:58:28.463Z,6068.00
2019-04-06T11:59:28.351Z,5968.00
2019-04-06T12:00:28.230Z,6000.00
2019-04-06T12:01:28.106Z,6080.00
2019-04-06T12:02:27.970Z,6024.00
2019-04-06T12:03:28.046Z,5920.00
2019-04-06T12:04:27.727Z,5680.00
2019-04-06T12:05:27.605Z,5488.00
2019-04-06T12:06:27.479Z,5332.00
2019-04-06T12:07:27.357Z,5244.00
2019-04-06T12:08:27.237Z,5164.00
2019-04-06T12:09:27.265Z,5188.00
2019-04-06T12:10:26.989Z,5160.00
2019-04-06T12:11:26.867Z,5160.00
2019-04-06T12:12:26.746Z,5276.00
2019-04-06T12:13:26.846Z,5368.00
2019-04-06T12:14:26.503Z,5520.00
2019-04-06T12:15:26.376Z,5844.00
2019-04-06T12:16:26.258Z,6280.00
2019-04-06T12:17:26.129Z,6800.00
2019-04-06T12:18:26.012Z,7076.00
2019-04-06T12:19:25.887Z,6372.00
2019-04-06T12:20:26.108Z,5636.00
2019-04-06T12:21:25.640Z,5056.00
2019-04-06T12:22:25.517Z,4784.00
2019-04-06T12:23:25.394Z,4616.00
2019-04-06T12:24:25.272Z,4552.00
2019-04-06T12:25:25.146Z,4540.00
2019-04-06T12:26:25.327Z,4528.00
2019-04-06T12:27:24.975Z,4480.00
2019-04-06T12:28:24.781Z,4412.00
2019-04-06T12:29:24.981Z,4256.00
2019-04-06T12:30:36.102Z,4200.00
2019-04-06T12:31:24.412Z,4320.00
2019-04-06T12:32:24.430Z,4448.00